sensor_id;sensor_type;location;lat;lon;timestamp;noise_LAeq;noise_LA_min;noise_LA_max;noise_LA01;noise_LA95
76261;Laerm;65076;52.362;6.588;2024-03-08T00:00:44;38.46;35.96;50.61;;
76261;Laerm;65076;52.362;6.588;2024-03-08T00:03:13;44.67;35.62;60.98;;
76261;Laerm;65076;52.362;6.588;2024-03-08T00:05:45;39.47;36.14;51.18;;
76261;Laerm;65076;52.362;6.588;2024-03-08T00:08:14;38.37;36.13;44.01;;
76261;Laerm;65076;52.362;6.588;2024-03-08T00:10:43;38.24;35.64;46.37;;
76261;Laerm;65076;52.362;6.588;2024-03-08T00:13:12;40.25;36.20;57.37;;
76261;Laerm;65076;52.362;6.588;2024-03-08T00:15:41;39.46;36.33;51.70;;
76261;Laerm;65076;52.362;6.588;2024-03-08T00:18:09;40.32;36.17;54.74;;
76261;Laerm;65076;52.362;6.588;2024-03-08T00:20:38;39.55;36.49;50.87;;
76261;Laerm;65076;52.362;6.588;2024-03-08T00:23:10;42.83;37.29;55.98;;
76261;Laerm;65076;52.362;6.588;2024-03-08T00:25:41;40.17;36.52;55.55;;
76261;Laerm;65076;52.362;6.588;2024-03-08T00:28:10;40.32;35.74;54.48;;
76261;Laerm;65076;52.362;6.588;2024-03-08T00:30:40;40.31;35.23;58.22;;
76261;Laerm;65076;52.362;6.588;2024-03-08T00:33:09;41.02;35.44;59.97;;
76261;Laerm;65076;52.362;6.588;2024-03-08T00:35:38;42.03;35.09;60.13;;
76261;Laerm;65076;52.362;6.588;2024-03-08T00:38:10;37.46;35.05;40.65;;
76261;Laerm;65076;52.362;6.588;2024-03-08T00:40:39;40.67;35.09;58.24;;
76261;Laerm;65076;52.362;6.588;2024-03-08T00:43:08;39.75;35.63;54.21;;
76261;Laerm;65076;52.362;6.588;2024-03-08T00:45:37;42.61;34.34;59.68;;
76261;Laerm;65076;52.362;6.588;2024-03-08T00:48:08;38.93;34.52;54.66;;
76261;Laerm;65076;52.362;6.588;2024-03-08T00:50:37;38.60;35.42;50.58;;
76261;Laerm;65076;52.362;6.588;2024-03-08T00:53:05;42.04;34.45;59.73;;
76261;Laerm;65076;52.362;6.588;2024-03-08T00:55:39;39.54;34.74;60.66;;
76261;Laerm;65076;52.362;6.588;2024-03-08T00:58:08;39.24;35.31;52.85;;
76261;Laerm;65076;52.362;6.588;2024-03-08T01:00:37;39.33;35.57;52.29;;
76261;Laerm;65076;52.362;6.588;2024-03-08T01:03:06;42.33;35.58;59.84;;
76261;Laerm;65076;52.362;6.588;2024-03-08T01:05:36;40.48;35.39;60.41;;
76261;Laerm;65076;52.362;6.588;2024-03-08T01:08:06;38.53;36.00;46.63;;
76261;Laerm;65076;52.362;6.588;2024-03-08T01:10:39;38.50;35.54;48.45;;
76261;Laerm;65076;52.362;6.588;2024-03-08T01:13:08;39.54;35.51;53.30;;
76261;Laerm;65076;52.362;6.588;2024-03-08T01:15:37;38.42;35.23;47.86;;
76261;Laerm;65076;52.362;6.588;2024-03-08T01:18:07;39.11;35.96;55.29;;
76261;Laerm;65076;52.362;6.588;2024-03-08T01:20:36;68.13;36.08;78.79;;
76261;Laerm;65076;52.362;6.588;2024-03-08T01:23:05;38.96;35.55;46.92;;
76261;Laerm;65076;52.362;6.588;2024-03-08T01:25:34;39.54;34.98;51.16;;
76261;Laerm;65076;52.362;6.588;2024-03-08T01:28:06;39.90;36.10;49.21;;
76261;Laerm;65076;52.362;6.588;2024-03-08T01:30:35;38.53;35.72;53.48;;
76261;Laerm;65076;52.362;6.588;2024-03-08T01:33:04;39.23;35.79;52.46;;
76261;Laerm;65076;52.362;6.588;2024-03-08T01:35:33;38.17;34.69;51.99;;
76261;Laerm;65076;52.362;6.588;2024-03-08T01:38:02;38.62;34.87;53.01;;
76261;Laerm;65076;52.362;6.588;2024-03-08T01:40:32;38.59;34.86;52.47;;
76261;Laerm;65076;52.362;6.588;2024-03-08T01:43:22;38.71;34.56;55.43;;
76261;Laerm;65076;52.362;6.588;2024-03-08T01:45:53;46.32;35.27;62.74;;
76261;Laerm;65076;52.362;6.588;2024-03-08T01:48:22;41.33;36.21;58.27;;
76261;Laerm;65076;52.362;6.588;2024-03-08T01:50:52;39.29;35.13;51.69;;
76261;Laerm;65076;52.362;6.588;2024-03-08T01:53:22;38.56;35.63;47.21;;
76261;Laerm;65076;52.362;6.588;2024-03-08T01:55:56;39.04;36.05;48.47;;
76261;Laerm;65076;52.362;6.588;2024-03-08T01:58:29;40.67;36.49;54.38;;
76261;Laerm;65076;52.362;6.588;2024-03-08T02:00:59;43.25;35.69;61.83;;
76261;Laerm;65076;52.362;6.588;2024-03-08T02:03:30;38.95;35.11;52.18;;
76261;Laerm;65076;52.362;6.588;2024-03-08T02:05:59;39.50;35.57;57.44;;
76261;Laerm;65076;52.362;6.588;2024-03-08T02:08:28;38.20;35.76;48.08;;
76261;Laerm;65076;52.362;6.588;2024-03-08T02:10:58;39.30;36.05;54.77;;
76261;Laerm;65076;52.362;6.588;2024-03-08T02:13:30;38.25;35.71;49.53;;
76261;Laerm;65076;52.362;6.588;2024-03-08T02:16:00;38.86;36.18;48.93;;
76261;Laerm;65076;52.362;6.588;2024-03-08T02:18:30;39.18;36.40;46.16;;
76261;Laerm;65076;52.362;6.588;2024-03-08T02:21:05;38.26;36.11;49.13;;
76261;Laerm;65076;52.362;6.588;2024-03-08T02:23:34;38.75;35.50;51.39;;
76261;Laerm;65076;52.362;6.588;2024-03-08T02:26:03;39.80;36.56;50.23;;
76261;Laerm;65076;52.362;6.588;2024-03-08T02:28:33;42.20;36.20;54.14;;
76261;Laerm;65076;52.362;6.588;2024-03-08T02:31:03;40.79;36.19;54.54;;
76261;Laerm;65076;52.362;6.588;2024-03-08T02:33:34;40.45;35.83;57.09;;
76261;Laerm;65076;52.362;6.588;2024-03-08T02:36:06;43.28;36.30;64.80;;
76261;Laerm;65076;52.362;6.588;2024-03-08T02:38:36;39.97;36.49;53.70;;
76261;Laerm;65076;52.362;6.588;2024-03-08T02:41:06;39.56;36.75;51.16;;
76261;Laerm;65076;52.362;6.588;2024-03-08T02:43:35;40.15;36.00;52.33;;
76261;Laerm;65076;52.362;6.588;2024-03-08T02:46:05;41.28;36.24;58.91;;
76261;Laerm;65076;52.362;6.588;2024-03-08T02:48:33;42.25;36.28;59.43;;
76261;Laerm;65076;52.362;6.588;2024-03-08T02:51:06;39.05;36.68;47.31;;
76261;Laerm;65076;52.362;6.588;2024-03-08T02:53:36;45.95;36.95;66.76;;
76261;Laerm;65076;52.362;6.588;2024-03-08T02:56:05;40.27;36.19;57.86;;
76261;Laerm;65076;52.362;6.588;2024-03-08T02:58:38;40.77;36.03;58.52;;
76261;Laerm;65076;52.362;6.588;2024-03-08T03:01:08;41.11;36.23;56.10;;
76261;Laerm;65076;52.362;6.588;2024-03-08T03:03:37;41.38;36.52;60.16;;
76261;Laerm;65076;52.362;6.588;2024-03-08T03:06:09;50.02;37.39;65.39;;
76261;Laerm;65076;52.362;6.588;2024-03-08T03:08:37;39.71;37.11;48.80;;
76261;Laerm;65076;52.362;6.588;2024-03-08T03:11:08;41.35;36.66;55.47;;
76261;Laerm;65076;52.362;6.588;2024-03-08T03:13:38;43.52;36.34;64.14;;
76261;Laerm;65076;52.362;6.588;2024-03-08T03:16:08;51.78;37.69;67.36;;
76261;Laerm;65076;52.362;6.588;2024-03-08T03:18:37;46.24;37.68;64.18;;
76261;Laerm;65076;52.362;6.588;2024-03-08T03:21:08;46.40;36.79;62.62;;
76261;Laerm;65076;52.362;6.588;2024-03-08T03:23:38;41.87;37.25;55.22;;
76261;Laerm;65076;52.362;6.588;2024-03-08T03:26:07;40.98;37.36;51.94;;
76261;Laerm;65076;52.362;6.588;2024-03-08T03:28:37;46.11;37.33;61.24;;
76261;Laerm;65076;52.362;6.588;2024-03-08T03:31:08;47.70;37.69;60.20;;
76261;Laerm;65076;52.362;6.588;2024-03-08T03:33:39;42.84;37.36;58.56;;
76261;Laerm;65076;52.362;6.588;2024-03-08T03:36:11;41.93;36.57;62.07;;
76261;Laerm;65076;52.362;6.588;2024-03-08T03:38:42;42.54;37.56;59.47;;
76261;Laerm;65076;52.362;6.588;2024-03-08T03:41:10;40.66;37.78;54.28;;
76261;Laerm;65076;52.362;6.588;2024-03-08T03:43:40;40.15;37.72;45.07;;
76261;Laerm;65076;52.362;6.588;2024-03-08T03:46:08;41.50;37.41;58.16;;
76261;Laerm;65076;52.362;6.588;2024-03-08T03:48:38;51.09;38.37;70.37;;
76261;Laerm;65076;52.362;6.588;2024-03-08T03:51:11;61.74;38.51;77.10;;
76261;Laerm;65076;52.362;6.588;2024-03-08T03:53:41;41.03;36.93;49.48;;
76261;Laerm;65076;52.362;6.588;2024-03-08T03:56:09;41.65;38.14;52.67;;
76261;Laerm;65076;52.362;6.588;2024-03-08T03:58:39;41.43;38.52;54.16;;
76261;Laerm;65076;52.362;6.588;2024-03-08T04:01:08;42.57;37.43;59.19;;
76261;Laerm;65076;52.362;6.588;2024-03-08T04:03:41;41.65;37.38;58.49;;
76261;Laerm;65076;52.362;6.588;2024-03-08T04:06:13;44.23;38.84;53.93;;
76261;Laerm;65076;52.362;6.588;2024-03-08T04:08:42;46.74;39.69;60.99;;
76261;Laerm;65076;52.362;6.588;2024-03-08T04:11:11;57.75;40.39;74.14;;
76261;Laerm;65076;52.362;6.588;2024-03-08T04:13:41;43.21;40.51;53.03;;
76261;Laerm;65076;52.362;6.588;2024-03-08T04:16:10;49.09;39.90;64.93;;
76261;Laerm;65076;52.362;6.588;2024-03-08T04:18:39;44.86;39.61;56.84;;
76261;Laerm;65076;52.362;6.588;2024-03-08T04:21:08;43.14;39.79;57.27;;
76261;Laerm;65076;52.362;6.588;2024-03-08T04:23:40;43.85;40.64;53.28;;
76261;Laerm;65076;52.362;6.588;2024-03-08T04:26:10;44.65;40.45;56.41;;
76261;Laerm;65076;52.362;6.588;2024-03-08T04:28:39;47.91;39.73;62.93;;
76261;Laerm;65076;52.362;6.588;2024-03-08T04:31:08;43.33;39.85;49.82;;
76261;Laerm;65076;52.362;6.588;2024-03-08T04:33:37;47.57;40.97;60.90;;
76261;Laerm;65076;52.362;6.588;2024-03-08T04:36:07;49.93;40.99;66.27;;
76261;Laerm;65076;52.362;6.588;2024-03-08T04:38:41;59.43;41.77;78.13;;
76261;Laerm;65076;52.362;6.588;2024-03-08T04:41:11;59.23;42.03;77.26;;
76261;Laerm;65076;52.362;6.588;2024-03-08T04:43:40;46.54;40.97;57.80;;
76261;Laerm;65076;52.362;6.588;2024-03-08T04:46:09;44.39;41.61;49.37;;
76261;Laerm;65076;52.362;6.588;2024-03-08T04:48:38;44.52;40.99;55.50;;
76261;Laerm;65076;52.362;6.588;2024-03-08T04:51:08;47.37;40.33;59.04;;
76261;Laerm;65076;52.362;6.588;2024-03-08T04:53:40;53.59;41.27;63.84;;
76261;Laerm;65076;52.362;6.588;2024-03-08T04:56:09;49.86;41.17;62.21;;
76261;Laerm;65076;52.362;6.588;2024-03-08T04:58:38;49.99;40.87;60.61;;
76261;Laerm;65076;52.362;6.588;2024-03-08T05:01:07;55.20;42.37;68.64;;
76261;Laerm;65076;52.362;6.588;2024-03-08T05:03:36;48.51;41.93;60.94;;
76261;Laerm;65076;52.362;6.588;2024-03-08T05:06:05;48.08;42.62;59.49;;
76261;Laerm;65076;52.362;6.588;2024-03-08T05:08:34;57.73;43.54;74.97;;
76261;Laerm;65076;52.362;6.588;2024-03-08T05:11:06;61.76;42.42;77.57;;
76261;Laerm;65076;52.362;6.588;2024-03-08T05:13:35;48.83;42.94;60.86;;
76261;Laerm;65076;52.362;6.588;2024-03-08T05:16:04;53.99;43.52;66.03;;
76261;Laerm;65076;52.362;6.588;2024-03-08T05:18:34;52.49;43.26;68.87;;
76261;Laerm;65076;52.362;6.588;2024-03-08T05:21:03;47.18;43.07;61.62;;
76261;Laerm;65076;52.362;6.588;2024-03-08T05:23:32;46.75;43.81;54.25;;
76261;Laerm;65076;52.362;6.588;2024-03-08T05:26:01;54.79;43.80;70.01;;
76261;Laerm;65076;52.362;6.588;2024-03-08T05:28:33;51.65;43.53;65.04;;
76261;Laerm;65076;52.362;6.588;2024-03-08T05:31:02;65.30;45.09;75.05;;
76261;Laerm;65076;52.362;6.588;2024-03-08T05:33:31;52.50;43.81;64.49;;
76261;Laerm;65076;52.362;6.588;2024-03-08T05:36:00;51.64;44.89;61.97;;
76261;Laerm;65076;52.362;6.588;2024-03-08T05:38:29;62.33;45.98;78.56;;
76261;Laerm;65076;52.362;6.588;2024-03-08T05:40:58;60.24;45.15;75.57;;
76261;Laerm;65076;52.362;6.588;2024-03-08T05:43:27;56.48;44.67;68.23;;
76261;Laerm;65076;52.362;6.588;2024-03-08T05:45:58;55.75;45.35;67.95;;
76261;Laerm;65076;52.362;6.588;2024-03-08T05:53:23;55.46;45.82;65.80;;
76261;Laerm;65076;52.362;6.588;2024-03-08T05:55:52;55.36;46.26;66.15;;
76261;Laerm;65076;52.362;6.588;2024-03-08T05:58:21;52.17;45.29;68.15;;
76261;Laerm;65076;52.362;6.588;2024-03-08T06:00:50;54.20;44.72;67.32;;
76261;Laerm;65076;52.362;6.588;2024-03-08T06:03:21;55.32;45.27;67.19;;
76261;Laerm;65076;52.362;6.588;2024-03-08T06:05:50;54.71;45.81;72.19;;
76261;Laerm;65076;52.362;6.588;2024-03-08T06:08:19;62.39;46.54;76.43;;
76261;Laerm;65076;52.362;6.588;2024-03-08T06:10:48;58.70;45.80;70.77;;
76261;Laerm;65076;52.362;6.588;2024-03-08T06:13:18;57.31;46.64;69.44;;
76261;Laerm;65076;52.362;6.588;2024-03-08T06:15:47;60.73;46.50;75.69;;
76261;Laerm;65076;52.362;6.588;2024-03-08T06:18:16;58.15;46.44;71.02;;
76261;Laerm;65076;52.362;6.588;2024-03-08T06:20:48;60.24;46.60;73.69;;
76261;Laerm;65076;52.362;6.588;2024-03-08T06:38:15;62.65;47.63;77.16;;
76261;Laerm;65076;52.362;6.588;2024-03-08T06:45:45;58.42;46.59;69.61;;
76261;Laerm;65076;52.362;6.588;2024-03-08T06:48:16;58.24;46.84;67.96;;
76261;Laerm;65076;52.362;6.588;2024-03-08T06:50:45;59.62;47.93;73.95;;
76261;Laerm;65076;52.362;6.588;2024-03-08T06:53:17;60.01;46.56;81.16;;
76261;Laerm;65076;52.362;6.588;2024-03-08T06:58:14;54.08;46.65;66.93;;
76261;Laerm;65076;52.362;6.588;2024-03-08T07:00:43;60.51;48.34;75.29;;
76261;Laerm;65076;52.362;6.588;2024-03-08T07:03:12;55.41;46.16;67.50;;
76261;Laerm;65076;52.362;6.588;2024-03-08T07:05:42;55.14;45.88;67.72;;
76261;Laerm;65076;52.362;6.588;2024-03-08T07:08:11;53.32;46.36;62.89;;
76261;Laerm;65076;52.362;6.588;2024-03-08T07:15:47;61.96;46.59;79.39;;
76261;Laerm;65076;52.362;6.588;2024-03-08T07:48:08;56.44;46.29;69.34;;
76261;Laerm;65076;52.362;6.588;2024-03-08T07:50:39;56.04;47.15;66.41;;
76261;Laerm;65076;52.362;6.588;2024-03-08T07:53:08;59.00;46.77;73.35;;
76261;Laerm;65076;52.362;6.588;2024-03-08T07:55:37;60.66;47.16;75.08;;
76261;Laerm;65076;52.362;6.588;2024-03-08T08:03:36;53.42;44.85;69.75;;
76261;Laerm;65076;52.362;6.588;2024-03-08T08:11:03;62.61;45.06;75.56;;
76261;Laerm;65076;52.362;6.588;2024-03-08T08:16:03;67.43;44.31;77.20;;
76261;Laerm;65076;52.362;6.588;2024-03-08T08:18:32;55.30;45.20;69.95;;
76261;Laerm;65076;52.362;6.588;2024-03-08T08:21:04;59.70;44.86;73.28;;
76261;Laerm;65076;52.362;6.588;2024-03-08T08:30:57;57.22;45.87;69.08;;
76261;Laerm;65076;52.362;6.588;2024-03-08T08:33:26;53.37;44.04;65.71;;
76261;Laerm;65076;52.362;6.588;2024-03-08T08:41:05;59.21;43.61;73.98;;
76261;Laerm;65076;52.362;6.588;2024-03-08T08:48:29;54.18;43.08;63.66;;
76261;Laerm;65076;52.362;6.588;2024-03-08T08:50:59;61.45;44.59;73.91;;
76261;Laerm;65076;52.362;6.588;2024-03-08T08:53:27;56.72;44.85;68.01;;
76261;Laerm;65076;52.362;6.588;2024-03-08T08:55:56;60.02;42.80;74.82;;
76261;Laerm;65076;52.362;6.588;2024-03-08T08:58:30;52.86;45.38;62.84;;
76261;Laerm;65076;52.362;6.588;2024-03-08T09:00:58;56.36;46.77;68.53;;
76261;Laerm;65076;52.362;6.588;2024-03-08T09:10:51;59.98;45.10;74.36;;
76261;Laerm;65076;52.362;6.588;2024-03-08T09:13:20;54.17;44.18;64.45;;
76261;Laerm;65076;52.362;6.588;2024-03-08T09:23:15;54.35;45.28;62.45;;
76261;Laerm;65076;52.362;6.588;2024-03-08T09:38:03;60.05;42.54;77.43;;
76261;Laerm;65076;52.362;6.588;2024-03-08T09:40:41;62.01;43.85;79.69;;
76261;Laerm;65076;52.362;6.588;2024-03-08T09:48:10;58.65;45.29;75.73;;
76261;Laerm;65076;52.362;6.588;2024-03-08T09:50:40;60.68;44.52;74.42;;
76261;Laerm;65076;52.362;6.588;2024-03-08T09:58:14;56.98;46.54;73.37;;
76261;Laerm;65076;52.362;6.588;2024-03-08T10:01:02;56.92;47.59;74.43;;
76261;Laerm;65076;52.362;6.588;2024-03-08T10:03:31;53.87;44.80;63.64;;
76261;Laerm;65076;52.362;6.588;2024-03-08T10:06:02;54.94;45.31;64.98;;
76261;Laerm;65076;52.362;6.588;2024-03-08T10:08:31;60.67;46.47;75.43;;
76261;Laerm;65076;52.362;6.588;2024-03-08T10:11:01;61.83;41.87;76.39;;
76261;Laerm;65076;52.362;6.588;2024-03-08T10:13:37;55.83;44.09;72.91;;
76261;Laerm;65076;52.362;6.588;2024-03-08T10:16:06;54.19;41.77;64.64;;
76261;Laerm;65076;52.362;6.588;2024-03-08T10:18:35;56.21;47.00;66.52;;
76261;Laerm;65076;52.362;6.588;2024-03-08T10:21:06;59.71;43.22;74.70;;
76261;Laerm;65076;52.362;6.588;2024-03-08T10:23:36;55.03;44.71;65.46;;
76261;Laerm;65076;52.362;6.588;2024-03-08T10:26:12;54.49;43.65;66.56;;
76261;Laerm;65076;52.362;6.588;2024-03-08T10:28:48;55.09;44.44;67.47;;
76261;Laerm;65076;52.362;6.588;2024-03-08T10:31:20;57.12;43.22;64.20;;
76261;Laerm;65076;52.362;6.588;2024-03-08T10:33:49;61.62;43.63;85.16;;
76261;Laerm;65076;52.362;6.588;2024-03-08T10:36:17;53.83;45.32;62.29;;
76261;Laerm;65076;52.362;6.588;2024-03-08T10:38:51;58.36;45.83;74.65;;
76261;Laerm;65076;52.362;6.588;2024-03-08T10:41:24;61.26;43.45;77.11;;
76261;Laerm;65076;52.362;6.588;2024-03-08T10:44:10;56.82;44.43;68.92;;
76261;Laerm;65076;52.362;6.588;2024-03-08T10:47:00;65.86;45.15;79.90;;
76261;Laerm;65076;52.362;6.588;2024-03-08T10:49:32;56.32;44.20;77.96;;
76261;Laerm;65076;52.362;6.588;2024-03-08T10:52:13;57.92;44.25;69.14;;
76261;Laerm;65076;52.362;6.588;2024-03-08T10:54:44;58.85;45.96;74.91;;
76261;Laerm;65076;52.362;6.588;2024-03-08T11:02:12;56.68;45.62;67.49;;
76261;Laerm;65076;52.362;6.588;2024-03-08T11:04:46;56.85;46.44;67.08;;
76261;Laerm;65076;52.362;6.588;2024-03-08T11:09:48;66.89;47.59;77.30;;
76261;Laerm;65076;52.362;6.588;2024-03-08T11:12:25;59.87;43.51;74.78;;
76261;Laerm;65076;52.362;6.588;2024-03-08T11:14:59;55.85;42.76;65.23;;
76261;Laerm;65076;52.362;6.588;2024-03-08T11:17:45;56.21;43.31;66.11;;
76261;Laerm;65076;52.362;6.588;2024-03-08T11:20:17;60.26;44.87;74.32;;
76261;Laerm;65076;52.362;6.588;2024-03-08T11:22:52;56.11;44.76;69.51;;
76261;Laerm;65076;52.362;6.588;2024-03-08T11:25:37;54.12;44.75;64.84;;
76261;Laerm;65076;52.362;6.588;2024-03-08T11:28:15;55.10;42.99;65.45;;
76261;Laerm;65076;52.362;6.588;2024-03-08T11:31:23;56.18;45.22;65.63;;
76261;Laerm;65076;52.362;6.588;2024-03-08T11:33:54;56.72;45.78;64.62;;
76261;Laerm;65076;52.362;6.588;2024-03-08T11:51:16;60.03;41.88;73.65;;
76261;Laerm;65076;52.362;6.588;2024-03-08T11:53:49;55.96;42.52;67.23;;
76261;Laerm;65076;52.362;6.588;2024-03-08T11:56:22;57.51;42.11;74.28;;
76261;Laerm;65076;52.362;6.588;2024-03-08T11:58:56;55.32;44.38;68.35;;
76261;Laerm;65076;52.362;6.588;2024-03-08T12:08:56;60.76;41.08;75.78;;
76261;Laerm;65076;52.362;6.588;2024-03-08T12:11:25;59.61;42.28;73.74;;
76261;Laerm;65076;52.362;6.588;2024-03-08T12:13:54;52.99;43.39;67.28;;
76261;Laerm;65076;52.362;6.588;2024-03-08T12:21:20;54.93;43.37;65.98;;
76261;Laerm;65076;52.362;6.588;2024-03-08T12:28:48;56.95;45.15;69.10;;
76261;Laerm;65076;52.362;6.588;2024-03-08T12:31:23;56.04;46.58;69.73;;
76261;Laerm;65076;52.362;6.588;2024-03-08T12:33:56;54.61;43.56;63.50;;
76261;Laerm;65076;52.362;6.588;2024-03-08T12:38:53;62.40;47.89;76.27;;
76261;Laerm;65076;52.362;6.588;2024-03-08T12:41:22;61.65;40.53;76.36;;
76261;Laerm;65076;52.362;6.588;2024-03-08T12:48:54;69.40;43.39;81.21;;
76261;Laerm;65076;52.362;6.588;2024-03-08T12:56:29;58.90;43.34;75.02;;
76261;Laerm;65076;52.362;6.588;2024-03-08T12:59:06;54.73;44.52;72.35;;
76261;Laerm;65076;52.362;6.588;2024-03-08T13:06:32;56.39;46.16;67.93;;
76261;Laerm;65076;52.362;6.588;2024-03-08T13:09:01;59.41;45.20;75.62;;
76261;Laerm;65076;52.362;6.588;2024-03-08T13:11:31;60.76;44.80;74.44;;
76261;Laerm;65076;52.362;6.588;2024-03-08T13:14:05;52.91;43.22;62.51;;
76261;Laerm;65076;52.362;6.588;2024-03-08T13:16:36;59.84;44.70;79.67;;
76261;Laerm;65076;52.362;6.588;2024-03-08T13:19:05;55.56;42.94;64.87;;
76261;Laerm;65076;52.362;6.588;2024-03-08T13:21:34;60.35;46.29;73.62;;
76261;Laerm;65076;52.362;6.588;2024-03-08T13:24:05;55.62;44.28;72.67;;
76261;Laerm;65076;52.362;6.588;2024-03-08T13:26:34;56.65;44.35;71.69;;
76261;Laerm;65076;52.362;6.588;2024-03-08T13:29:06;59.42;45.98;77.99;;
76261;Laerm;65076;52.362;6.588;2024-03-08T13:31:34;60.43;45.22;79.69;;
76261;Laerm;65076;52.362;6.588;2024-03-08T13:34:05;54.54;44.91;70.60;;
76261;Laerm;65076;52.362;6.588;2024-03-08T13:36:39;60.01;45.90;75.75;;
76261;Laerm;65076;52.362;6.588;2024-03-08T13:41:39;55.08;45.04;69.10;;
76261;Laerm;65076;52.362;6.588;2024-03-08T13:44:10;55.05;43.16;66.70;;
76261;Laerm;65076;52.362;6.588;2024-03-08T13:46:47;66.62;44.03;77.85;;
76261;Laerm;65076;52.362;6.588;2024-03-08T13:49:16;56.00;45.57;70.98;;
76261;Laerm;65076;52.362;6.588;2024-03-08T13:51:45;60.08;46.47;72.79;;
76261;Laerm;65076;52.362;6.588;2024-03-08T13:54:16;59.66;43.28;74.94;;
76261;Laerm;65076;52.362;6.588;2024-03-08T13:56:45;59.52;46.93;74.49;;
76261;Laerm;65076;52.362;6.588;2024-03-08T13:59:15;56.33;45.16;68.57;;
76261;Laerm;65076;52.362;6.588;2024-03-08T14:01:46;62.51;46.39;80.58;;
76261;Laerm;65076;52.362;6.588;2024-03-08T14:04:15;59.90;45.67;80.82;;
76261;Laerm;65076;52.362;6.588;2024-03-08T14:06:45;56.08;44.69;71.49;;
76261;Laerm;65076;52.362;6.588;2024-03-08T14:09:14;60.87;45.00;75.22;;
76261;Laerm;65076;52.362;6.588;2024-03-08T14:11:45;61.15;46.35;74.91;;
76261;Laerm;65076;52.362;6.588;2024-03-08T14:14:14;57.57;43.60;77.74;;
76261;Laerm;65076;52.362;6.588;2024-03-08T14:16:46;55.07;45.24;69.98;;
76261;Laerm;65076;52.362;6.588;2024-03-08T14:19:14;58.18;44.97;74.85;;
76261;Laerm;65076;52.362;6.588;2024-03-08T14:21:44;60.00;44.66;72.38;;
76261;Laerm;65076;52.362;6.588;2024-03-08T14:24:14;56.43;46.31;75.00;;
76261;Laerm;65076;52.362;6.588;2024-03-08T14:26:45;54.87;43.82;69.27;;
76261;Laerm;65076;52.362;6.588;2024-03-08T14:29:14;56.85;45.75;68.55;;
76261;Laerm;65076;52.362;6.588;2024-03-08T14:31:46;57.65;42.75;77.34;;
76261;Laerm;65076;52.362;6.588;2024-03-08T14:34:15;55.20;43.23;66.85;;
76261;Laerm;65076;52.362;6.588;2024-03-08T14:36:45;55.42;44.69;67.82;;
76261;Laerm;65076;52.362;6.588;2024-03-08T14:39:14;60.38;46.10;74.46;;
76261;Laerm;65076;52.362;6.588;2024-03-08T14:41:47;61.58;47.14;77.30;;
76261;Laerm;65076;52.362;6.588;2024-03-08T14:44:20;57.39;45.90;70.70;;
76261;Laerm;65076;52.362;6.588;2024-03-08T14:46:54;54.56;45.63;67.64;;
76261;Laerm;65076;52.362;6.588;2024-03-08T14:49:23;55.13;43.88;66.10;;
76261;Laerm;65076;52.362;6.588;2024-03-08T14:51:52;59.89;45.75;73.45;;
76261;Laerm;65076;52.362;6.588;2024-03-08T14:54:21;60.28;47.97;75.04;;
76261;Laerm;65076;52.362;6.588;2024-03-08T14:56:51;63.51;47.30;80.44;;
76261;Laerm;65076;52.362;6.588;2024-03-08T14:59:21;58.59;46.10;74.01;;
76261;Laerm;65076;52.362;6.588;2024-03-08T15:01:55;59.16;47.23;76.06;;
76261;Laerm;65076;52.362;6.588;2024-03-08T15:04:24;61.87;48.25;76.19;;
76261;Laerm;65076;52.362;6.588;2024-03-08T15:06:53;58.33;47.00;81.59;;
76261;Laerm;65076;52.362;6.588;2024-03-08T15:09:23;63.19;48.08;78.40;;
76261;Laerm;65076;52.362;6.588;2024-03-08T15:11:52;63.04;46.20;75.56;;
76261;Laerm;65076;52.362;6.588;2024-03-08T15:14:22;54.52;45.25;64.82;;
76261;Laerm;65076;52.362;6.588;2024-03-08T15:16:54;56.10;45.68;65.08;;
76261;Laerm;65076;52.362;6.588;2024-03-08T15:21:51;58.52;45.41;71.18;;
76261;Laerm;65076;52.362;6.588;2024-03-08T15:24:22;58.73;44.85;70.31;;
76261;Laerm;65076;52.362;6.588;2024-03-08T15:26:52;59.85;46.30;76.07;;
76261;Laerm;65076;52.362;6.588;2024-03-08T15:31:49;56.29;43.89;65.17;;
76261;Laerm;65076;52.362;6.588;2024-03-08T15:34:21;55.74;43.90;65.87;;
76261;Laerm;65076;52.362;6.588;2024-03-08T15:36:51;62.14;45.63;76.87;;
76261;Laerm;65076;52.362;6.588;2024-03-08T15:39:20;57.50;45.63;70.25;;
76261;Laerm;65076;52.362;6.588;2024-03-08T15:41:49;62.07;44.33;76.75;;
76261;Laerm;65076;52.362;6.588;2024-03-08T15:44:20;55.16;43.35;66.52;;
76261;Laerm;65076;52.362;6.588;2024-03-08T15:46:49;58.04;46.73;67.80;;
76261;Laerm;65076;52.362;6.588;2024-03-08T15:49:18;58.15;46.19;68.79;;
76261;Laerm;65076;52.362;6.588;2024-03-08T15:51:49;60.48;47.12;73.88;;
76261;Laerm;65076;52.362;6.588;2024-03-08T15:54:18;62.02;44.42;80.92;;
76261;Laerm;65076;52.362;6.588;2024-03-08T15:56:47;59.70;43.17;71.56;;
76261;Laerm;65076;52.362;6.588;2024-03-08T15:59:16;57.08;40.92;70.61;;
76261;Laerm;65076;52.362;6.588;2024-03-08T16:01:45;56.59;43.86;76.30;;
76261;Laerm;65076;52.362;6.588;2024-03-08T16:04:14;57.01;46.77;70.48;;
76261;Laerm;65076;52.362;6.588;2024-03-08T16:06:44;56.13;45.55;64.80;;
76261;Laerm;65076;52.362;6.588;2024-03-08T16:09:15;59.19;46.56;74.12;;
76261;Laerm;65076;52.362;6.588;2024-03-08T16:11:45;60.55;46.08;74.97;;
76261;Laerm;65076;52.362;6.588;2024-03-08T16:14:14;57.15;43.33;65.90;;
76261;Laerm;65076;52.362;6.588;2024-03-08T16:16:43;56.82;44.27;67.04;;
76261;Laerm;65076;52.362;6.588;2024-03-08T16:19:14;61.00;42.86;75.97;;
76261;Laerm;65076;52.362;6.588;2024-03-08T16:21:42;58.12;43.04;71.82;;
76261;Laerm;65076;52.362;6.588;2024-03-08T16:24:12;61.74;45.27;77.44;;
76261;Laerm;65076;52.362;6.588;2024-03-08T16:26:43;57.46;44.77;67.49;;
76261;Laerm;65076;52.362;6.588;2024-03-08T16:29:12;54.71;44.40;66.96;;
76261;Laerm;65076;52.362;6.588;2024-03-08T16:31:42;58.19;46.09;68.53;;
76261;Laerm;65076;52.362;6.588;2024-03-08T16:34:21;56.88;45.31;68.32;;
76261;Laerm;65076;52.362;6.588;2024-03-08T16:36:50;54.73;43.90;63.91;;
76261;Laerm;65076;52.362;6.588;2024-03-08T16:39:19;62.28;42.95;76.77;;
76261;Laerm;65076;52.362;6.588;2024-03-08T16:41:49;62.43;47.47;76.27;;
76261;Laerm;65076;52.362;6.588;2024-03-08T16:44:18;54.30;41.86;62.86;;
76261;Laerm;65076;52.362;6.588;2024-03-08T16:46:50;57.13;43.53;66.47;;
76261;Laerm;65076;52.362;6.588;2024-03-08T16:49:21;56.82;43.88;70.52;;
76261;Laerm;65076;52.362;6.588;2024-03-08T16:51:50;62.57;43.01;75.28;;
76261;Laerm;65076;52.362;6.588;2024-03-08T16:54:19;61.26;45.76;76.58;;
76261;Laerm;65076;52.362;6.588;2024-03-08T16:56:48;64.50;45.15;82.00;;
76261;Laerm;65076;52.362;6.588;2024-03-08T16:59:17;54.14;43.56;64.22;;
76261;Laerm;65076;52.362;6.588;2024-03-08T17:01:46;57.61;44.32;68.18;;
76261;Laerm;65076;52.362;6.588;2024-03-08T17:04:15;54.75;41.70;65.35;;
76261;Laerm;65076;52.362;6.588;2024-03-08T17:06:47;55.63;43.65;67.42;;
76261;Laerm;65076;52.362;6.588;2024-03-08T17:09:19;61.62;45.91;76.49;;
76261;Laerm;65076;52.362;6.588;2024-03-08T17:14:16;67.91;42.18;80.60;;
76261;Laerm;65076;52.362;6.588;2024-03-08T17:16:45;56.71;43.96;70.63;;
76261;Laerm;65076;52.362;6.588;2024-03-08T17:19:17;58.27;41.77;70.12;;